Time;durP1;ratioP1;P1;durP2;ratioP2;P2;SDS_P1;SDS_P2;PMS_P1;PMS_P2;Temp;Humidity;BMP_temperature;BMP_pressure;BME280_temperature;BME280_humidity;BME280_pressure;Samples;Min_cycle;Max_cycle;Signal;HPM_P1;HPM_P2
2023/08/23 00:02:40;;;;;;;0.10;0.10;;;;;;;19.52;100.00;99479.75;5093379;28;20202;-55
2023/08/23 00:05:27;;;;;;;0.10;0.10;;;;;;;19.53;100.00;99481.44;5094616;28;20222;-55
2023/08/23 00:08:14;;;;;;;0.10;0.10;;;;;;;19.45;100.00;99484.00;5094713;28;20187;-55
2023/08/23 00:11:00;;;;;;;0.10;0.10;;;;;;;19.35;100.00;99491.25;5094491;28;20190;-55
2023/08/23 00:13:47;;;;;;;0.10;0.10;;;;;;;19.40;100.00;99487.16;5094455;28;20186;-55
2023/08/23 00:16:34;;;;;;;0.10;0.10;;;;;;;19.40;100.00;99486.31;5093034;28;20265;-55
2023/08/23 00:19:22;;;;;;;0.10;0.10;;;;;;;19.34;100.00;99482.34;5094408;28;20199;-55
2023/08/23 00:22:09;;;;;;;0.10;0.10;;;;;;;19.31;100.00;99477.28;5094294;28;20195;-55
2023/08/23 00:24:56;;;;;;;0.10;0.10;;;;;;;19.24;100.00;99476.16;5094233;28;20202;-55
2023/08/23 00:27:43;;;;;;;0.10;0.10;;;;;;;19.23;100.00;99476.31;5094204;28;20322;-55
2023/08/23 00:30:31;;;;;;;0.10;0.10;;;;;;;19.16;100.00;99476.03;5094154;28;20198;-55
2023/08/23 00:33:18;;;;;;;0.10;0.10;;;;;;;19.24;100.00;99478.84;5092897;28;20310;-55
2023/08/23 00:36:07;;;;;;;0.10;0.10;;;;;;;19.02;100.00;99479.19;5094077;28;20195;-55
2023/08/23 00:38:55;;;;;;;0.10;0.10;;;;;;;19.03;100.00;99478.19;5092926;28;20195;-55
2023/08/23 00:41:43;;;;;;;0.10;0.10;;;;;;;18.94;100.00;99476.38;5093993;28;20282;-55
2023/08/23 00:44:29;;;;;;;0.10;0.10;;;;;;;18.91;100.00;99474.81;5093963;28;20198;-55
2023/08/23 00:47:16;;;;;;;0.10;0.10;;;;;;;18.95;100.00;99476.22;5092075;28;20284;-55
2023/08/23 00:50:04;;;;;;;0.10;0.10;;;;;;;18.99;100.00;99476.78;5093757;28;20190;-55
2023/08/23 00:52:53;;;;;;;0.10;0.10;;;;;;;18.96;100.00;99474.38;5092719;28;20309;-55
2023/08/23 00:55:40;;;;;;;0.10;0.10;;;;;;;19.07;100.00;99474.22;5093581;28;20237;-55
2023/08/23 00:58:27;;;;;;;0.10;0.10;;;;;;;19.09;100.00;99470.38;5093845;28;20198;-55
2023/08/23 01:01:14;;;;;;;0.10;0.10;;;;;;;18.95;100.00;99470.84;5092450;28;20240;-55
2023/08/23 01:04:01;;;;;;;0.10;0.10;;;;;;;19.05;100.00;99471.69;5093397;28;20213;-55
2023/08/23 01:06:59;;;;;;;0.10;0.10;;;;;;;18.94;100.00;99477.22;5093263;28;20215;-55
2023/08/23 01:09:56;;;;;;;0.10;0.10;;;;;;;18.94;100.00;99468.31;5092668;28;20321;-55
2023/08/23 01:12:51;;;;;;;0.10;0.10;;;;;;;18.89;100.00;99482.16;5093429;28;20186;-55
2023/08/23 01:15:38;;;;;;;0.10;0.10;;;;;;;18.84;100.00;99477.22;5093390;28;20198;-55
2023/08/23 01:18:26;;;;;;;0.10;0.10;;;;;;;18.92;100.00;99486.41;5092063;28;20262;-55
2023/08/23 01:21:19;;;;;;;0.10;0.10;;;;;;;18.89;100.00;99490.22;5092247;28;20277;-55
2023/08/23 01:24:09;;;;;;;0.10;0.10;;;;;;;18.68;100.00;99487.69;5092167;28;20706;-54
2023/08/23 01:26:56;;;;;;;0.10;0.10;;;;;;;18.54;100.00;99496.13;5092976;28;20218;-55
2023/08/23 01:29:43;;;;;;;0.10;0.10;;;;;;;18.65;100.00;99489.81;5093117;28;20202;-55
2023/08/23 01:32:41;;;;;;;0.10;0.10;;;;;;;18.67;100.00;99491.34;5090797;28;20198;-55
2023/08/23 01:35:33;;;;;;;0.10;0.10;;;;;;;18.62;100.00;99490.03;5091890;28;20202;-55
2023/08/23 01:38:23;;;;;;;0.10;0.10;;;;;;;18.57;100.00;99490.47;5092708;28;20219;-55
2023/08/23 01:41:11;;;;;;;0.10;0.10;;;;;;;18.47;100.00;99482.44;5093027;28;20673;-55
2023/08/23 01:43:58;;;;;;;0.10;0.10;;;;;;;18.44;100.00;99488.09;5091944;28;20187;-55
2023/08/23 01:46:45;;;;;;;0.10;0.10;;;;;;;18.51;100.00;99491.88;5091345;28;20215;-55
2023/08/23 01:49:32;;;;;;;0.10;0.10;;;;;;;18.34;100.00;99495.28;5092886;28;20198;-55
2023/08/23 01:52:19;;;;;;;0.10;0.10;;;;;;;18.40;100.00;99491.16;5092812;28;20607;-55
2023/08/23 01:55:06;;;;;;;0.10;0.10;;;;;;;18.29;100.00;99493.00;5092835;28;20191;-54
2023/08/23 01:57:54;;;;;;;0.10;0.10;;;;;;;18.23;100.00;99488.19;5092948;28;20191;-55
2023/08/23 02:00:46;;;;;;;0.10;0.10;;;;;;;18.33;100.00;99490.88;5091780;28;20194;-55
2023/08/23 02:03:33;;;;;;;0.10;0.10;;;;;;;18.22;100.00;99488.31;5091568;28;20202;-55
2023/08/23 02:06:20;;;;;;;0.10;0.10;;;;;;;18.18;100.00;99487.75;5092761;28;20191;-55
2023/08/23 02:09:07;;;;;;;0.10;0.10;;;;;;;18.21;100.00;99490.16;5092819;28;20229;-55
2023/08/23 02:11:54;;;;;;;0.10;0.10;;;;;;;18.02;100.00;99490.97;5092728;28;20194;-55
2023/08/23 02:14:42;;;;;;;0.10;0.10;;;;;;;17.95;100.00;99497.88;5091573;28;20199;-55
2023/08/23 02:17:29;;;;;;;0.10;0.10;;;;;;;17.98;100.00;99494.06;5091460;28;20194;-55
2023/08/23 02:20:16;;;;;;;0.10;0.10;;;;;;;17.95;100.00;99495.19;5093490;28;20190;-55
2023/08/23 02:23:04;;;;;;;0.10;0.10;;;;;;;17.88;100.00;99493.19;5095529;28;20218;-55
2023/08/23 02:25:51;;;;;;;0.10;0.10;;;;;;;18.03;100.00;99487.28;5095585;28;20198;-55
2023/08/23 02:28:38;;;;;;;0.10;0.10;;;;;;;18.08;100.00;99486.06;5096228;28;20219;-55
2023/08/23 02:31:26;;;;;;;0.10;0.10;;;;;;;18.18;100.00;99482.41;5095217;28;20190;-55
2023/08/23 02:34:14;;;;;;;0.10;0.10;;;;;;;18.27;100.00;99475.34;5096482;28;20187;-55
2023/08/23 02:37:01;;;;;;;0.10;0.10;;;;;;;18.27;100.00;99473.53;5096269;28;20230;-54
2023/08/23 02:39:47;;;;;;;0.10;0.10;;;;;;;18.26;100.00;99481.72;5095294;28;20202;-55
2023/08/23 02:42:34;;;;;;;0.10;0.10;;;;;;;18.13;100.00;99475.75;5096321;28;20194;-55
2023/08/23 02:45:22;;;;;;;0.10;0.10;;;;;;;18.09;100.00;99482.38;5096248;28;20667;-54
2023/08/23 02:48:11;;;;;;;0.10;0.10;;;;;;;18.11;100.00;99483.94;5094600;28;20218;-55
2023/08/23 02:50:59;;;;;;;0.10;0.10;;;;;;;18.22;100.00;99488.31;5096185;28;20191;-55
2023/08/23 02:53:46;;;;;;;0.10;0.10;;;;;;;18.12;100.00;99479.41;5096099;28;20198;-55
2023/08/23 02:56:33;;;;;;;0.10;0.10;;;;;;;18.06;100.00;99475.47;5096052;28;20198;-55
2023/08/23 02:59:20;;;;;;;0.10;0.10;;;;;;;18.00;100.00;99492.09;5095943;28;20207;-55
2023/08/23 03:02:07;;;;;;;0.10;0.10;;;;;;;17.94;100.00;99484.59;5094611;28;20270;-55
2023/08/23 03:04:56;;;;;;;0.10;0.10;;;;;;;17.95;100.00;99487.16;5095497;28;20691;-55
2023/08/23 03:07:43;;;;;;;0.10;0.10;;;;;;;17.85;100.00;99480.88;5094702;28;20253;-55
2023/08/23 03:10:30;;;;;;;0.03;0.03;;;;;;;17.97;100.00;99484.34;5095764;28;20317;-55
2023/08/23 03:13:17;;;;;;;0.10;0.10;;;;;;;17.86;100.00;99485.28;5094515;28;20218;-55
2023/08/23 03:16:04;;;;;;;0.10;0.10;;;;;;;18.08;100.00;99484.22;5095528;28;20195;-55
2023/08/23 03:18:52;;;;;;;0.10;0.10;;;;;;;18.06;100.00;99474.63;5094500;28;20326;-55
2023/08/23 03:21:40;;;;;;;0.10;0.10;;;;;;;18.06;100.00;99472.78;5094439;28;20218;-55
2023/08/23 03:24:27;;;;;;;0.10;0.10;;;;;;;17.89;100.00;99470.75;5095442;28;20199;-55
2023/08/23 03:27:14;;;;;;;0.10;0.10;;;;;;;18.12;100.00;99468.69;5094295;28;20215;-54
2023/08/23 03:30:01;;;;;;;0.10;0.10;;;;;;;17.94;100.00;99473.88;5095224;28;20269;-55
2023/08/23 03:32:49;;;;;;;0.10;0.10;;;;;;;17.98;100.00;99469.94;5091974;28;20256;-55
2023/08/23 03:35:36;;;;;;;0.10;0.10;;;;;;;17.86;100.00;99463.84;5095421;28;20199;-55
2023/08/23 03:38:24;;;;;;;0.10;0.10;;;;;;;18.06;100.00;99463.91;5093762;28;20222;-55
2023/08/23 03:41:13;;;;;;;0.10;0.10;;;;;;;17.82;100.00;99458.88;5094766;28;20203;-55
2023/08/23 03:44:00;;;;;;;0.10;0.10;;;;;;;17.82;100.00;99462.41;5093974;28;20199;-55
2023/08/23 03:46:47;;;;;;;0.10;0.10;;;;;;;17.73;100.00;99466.75;5092589;28;20683;-55
2023/08/23 03:49:36;;;;;;;0.10;0.10;;;;;;;17.70;100.00;99460.84;5095012;28;20199;-55
2023/08/23 03:52:23;;;;;;;0.10;0.10;;;;;;;17.80;100.00;99463.53;5093891;28;20299;-55
2023/08/23 03:55:11;;;;;;;0.10;0.10;;;;;;;17.71;100.00;99474.09;5094664;28;20195;-54
2023/08/23 03:57:58;;;;;;;0.10;0.10;;;;;;;17.64;100.00;99477.41;5094847;28;20268;-55
2023/08/23 04:00:50;;;;;;;0.10;0.10;;;;;;;17.56;100.00;99482.59;5093692;28;20210;-55
2023/08/23 04:03:36;;;;;;;0.10;0.10;;;;;;;17.65;100.00;99482.63;5093489;28;20202;-55
2023/08/23 04:06:23;;;;;;;0.10;0.10;;;;;;;17.41;100.00;99480.28;5094585;28;20198;-55
2023/08/23 04:09:10;;;;;;;0.10;0.10;;;;;;;17.35;100.00;99488.84;5093247;28;20284;-55
2023/08/23 04:11:58;;;;;;;0.10;0.10;;;;;;;17.46;100.00;99480.72;5093398;28;20205;-55
2023/08/23 04:14:45;;;;;;;0.10;0.10;;;;;;;17.52;100.00;99483.84;5094527;28;20242;-55
2023/08/23 04:17:32;;;;;;;0.10;0.10;;;;;;;17.61;100.00;99485.72;5093080;28;20709;-55
2023/08/23 04:20:19;;;;;;;0.10;0.10;;;;;;;17.59;100.00;99485.88;5093176;28;20229;-55
2023/08/23 04:23:06;;;;;;;0.10;0.10;;;;;;;17.63;100.00;99486.44;5093381;28;20199;-55
2023/08/23 04:25:54;;;;;;;0.10;0.10;;;;;;;17.70;100.00;99487.63;5094278;28;20199;-55
2023/08/23 04:28:42;;;;;;;0.10;0.10;;;;;;;17.59;100.00;99488.53;5092848;28;20353;-55
2023/08/23 04:31:30;;;;;;;0.10;0.10;;;;;;;17.68;100.00;99493.09;5091806;28;20199;-55
2023/08/23 04:34:24;;;;;;;0.10;0.10;;;;;;;17.64;100.00;99497.00;5093081;28;20202;-55
2023/08/23 04:37:11;;;;;;;0.10;0.10;;;;;;;17.61;100.00;99499.13;5093818;28;20226;-55
2023/08/23 04:39:58;;;;;;;0.10;0.10;;;;;;;17.63;100.00;99507.84;5093027;28;20197;-55
2023/08/23 04:42:45;;;;;;;0.10;0.10;;;;;;;17.65;100.00;99503.22;5092791;28;20274;-55
2023/08/23 04:45:37;;;;;;;0.10;0.10;;;;;;;17.59;100.00;99501.94;5093819;28;20243;-55
2023/08/23 04:48:26;;;;;;;0.10;0.10;;;;;;;17.69;100.00;99501.97;5091124;28;20230;-55
2023/08/23 04:51:13;;;;;;;0.10;0.10;;;;;;;17.74;100.00;99505.97;5093649;28;20190;-57
2023/08/23 04:54:01;;;;;;;0.10;0.10;;;;;;;17.78;100.00;99495.84;5092705;28;20210;-56
2023/08/23 04:56:47;;;;;;;0.10;0.10;;;;;;;17.91;100.00;99498.28;5092658;28;20198;-57
2023/08/23 04:59:35;;;;;;;0.10;0.10;;;;;;;17.84;100.00;99491.75;5092652;28;20190;-57
2023/08/23 05:02:24;;;;;;;0.10;0.10;;;;;;;18.03;100.00;99494.50;5091203;28;20266;-57
2023/08/23 05:05:13;;;;;;;0.10;0.10;;;;;;;17.76;100.00;99486.22;5092477;28;20205;-57
2023/08/23 05:08:04;;;;;;;0.10;0.10;;;;;;;17.69;100.00;99484.09;5092349;28;20286;-57
2023/08/23 05:10:55;;;;;;;0.10;0.10;;;;;;;17.67;100.00;99491.41;5092472;28;20195;-57
2023/08/23 05:13:42;;;;;;;0.10;0.10;;;;;;;17.54;100.00;99487.22;5092477;28;20190;-57
2023/08/23 05:16:29;;;;;;;0.10;0.10;;;;;;;17.48;100.00;99490.47;5090913;28;20199;-55
2023/08/23 05:19:17;;;;;;;0.10;0.10;;;;;;;17.48;100.00;99504.72;5091954;28;20198;-55
2023/08/23 05:22:04;;;;;;;0.10;0.10;;;;;;;17.47;100.00;99508.38;5092238;28;20187;-54
2023/08/23 05:24:51;;;;;;;0.10;0.10;;;;;;;17.58;100.00;99507.44;5092520;28;20198;-55
2023/08/23 05:27:38;;;;;;;0.10;0.10;;;;;;;17.56;100.00;99504.88;5092147;28;20210;-55
2023/08/23 05:30:25;;;;;;;0.10;0.10;;;;;;;17.78;100.00;99495.84;5093059;28;20207;-55
2023/08/23 05:33:12;;;;;;;0.10;0.10;;;;;;;17.82;100.00;99501.75;5090545;28;20309;-55
2023/08/23 05:36:00;;;;;;;0.10;0.10;;;;;;;17.89;100.00;99494.88;5093088;28;20206;-55
2023/08/23 05:38:47;;;;;;;0.10;0.10;;;;;;;18.11;100.00;99497.34;5092593;28;20219;-55
2023/08/23 05:41:34;;;;;;;0.10;0.10;;;;;;;18.08;100.00;99494.94;5091871;28;20202;-55
2023/08/23 05:44:21;;;;;;;0.10;0.10;;;;;;;18.15;100.00;99504.13;5091915;28;20194;-55
2023/08/23 05:47:08;;;;;;;0.10;0.10;;;;;;;18.14;100.00;99515.81;5091741;28;20276;-55
2023/08/23 05:49:54;;;;;;;0.10;0.10;;;;;;;18.10;100.00;99510.88;5092402;28;20218;-55
2023/08/23 05:52:42;;;;;;;0.10;0.10;;;;;;;18.34;100.00;99507.84;5091917;28;20203;-55
2023/08/23 05:55:29;;;;;;;0.10;0.10;;;;;;;18.29;100.00;99525.19;5091182;28;20190;-55
2023/08/23 05:58:17;;;;;;;0.10;0.10;;;;;;;18.50;100.00;99521.53;5092601;28;20190;-55
2023/08/23 06:01:04;;;;;;;0.10;0.10;;;;;;;18.45;100.00;99530.00;5092682;28;20190;-55
2023/08/23 06:03:51;;;;;;;0.10;0.10;;;;;;;18.46;100.00;99526.34;5092776;28;20198;-55
2023/08/23 06:06:38;;;;;;;0.10;0.10;;;;;;;18.58;100.00;99532.41;5092508;28;20194;-55
2023/08/23 06:09:26;;;;;;;0.10;0.10;;;;;;;18.61;100.00;99529.44;5092355;28;20260;-55
2023/08/23 06:12:13;;;;;;;0.10;0.10;;;;;;;18.69;100.00;99528.78;5092691;28;20199;-55
2023/08/23 06:15:00;;;;;;;0.00;0.00;;;;;;;18.73;100.00;99523.00;5092395;28;20229;-55
2023/08/23 06:17:47;;;;;;;0.10;0.10;;;;;;;18.83;100.00;99529.22;5091090;28;20187;-55
2023/08/23 06:20:34;;;;;;;0.10;0.10;;;;;;;18.96;100.00;99531.59;5092574;28;20190;-57
2023/08/23 06:23:21;;;;;;;0.10;0.10;;;;;;;19.08;100.00;99530.47;5092362;28;20333;-55
2023/08/23 06:26:10;;;;;;;0.10;0.10;;;;;;;19.23;100.00;99530.03;5092603;28;20187;-55
2023/08/23 06:28:57;;;;;;;0.10;0.10;;;;;;;19.40;100.00;99530.16;5092448;28;20248;-55
2023/08/23 06:31:44;;;;;;;0.10;0.10;;;;;;;19.47;100.00;99530.38;5091217;28;20186;-55
2023/08/23 06:34:30;;;;;;;0.10;0.10;;;;;;;19.52;100.00;99522.75;5092445;28;20218;-55
2023/08/23 06:37:17;;;;;;;0.10;0.10;;;;;;;19.77;100.00;99537.38;5092364;28;20234;-55
2023/08/23 06:40:05;;;;;;;0.10;0.10;;;;;;;19.71;100.00;99528.09;5092281;28;20186;-56
2023/08/23 06:42:53;;;;;;;0.10;0.10;;;;;;;19.95;100.00;99527.53;5092391;28;20269;-55
2023/08/23 06:45:40;;;;;;;0.10;0.10;;;;;;;20.17;100.00;99520.06;5092295;28;20268;-55
2023/08/23 06:48:27;;;;;;;0.10;0.10;;;;;;;20.23;100.00;99514.94;5091031;28;20207;-55
2023/08/23 06:51:13;;;;;;;0.10;0.10;;;;;;;20.42;100.00;99510.44;5092347;28;20322;-55
2023/08/23 06:54:00;;;;;;;0.10;0.10;;;;;;;20.47;100.00;99498.25;5092434;28;20269;-55
2023/08/23 06:56:47;;;;;;;0.10;0.10;;;;;;;20.69;100.00;99496.09;5092128;28;20271;-55
2023/08/23 06:59:35;;;;;;;0.10;0.10;;;;;;;20.84;100.00;99492.72;5091956;28;20187;-55
2023/08/23 07:02:23;;;;;;;0.10;0.10;;;;;;;21.10;100.00;99495.44;5090908;28;20195;-55
2023/08/23 07:05:09;;;;;;;0.10;0.10;;;;;;;21.31;100.00;99492.41;5091973;28;20199;-56
2023/08/23 07:07:57;;;;;;;0.10;0.10;;;;;;;21.32;100.00;99496.78;5094840;28;20191;-55
2023/08/23 07:10:44;;;;;;;0.10;0.10;;;;;;;21.42;100.00;99491.28;5095505;28;20268;-56
2023/08/23 07:13:31;;;;;;;0.10;0.10;;;;;;;21.49;100.00;99483.41;5095565;28;20269;-55
2023/08/23 07:16:19;;;;;;;0.10;0.10;;;;;;;21.78;100.00;99493.84;5094367;28;20256;-55
2023/08/23 07:19:06;;;;;;;0.10;0.10;;;;;;;21.91;100.00;99489.69;5095750;28;20190;-55
2023/08/23 07:21:53;;;;;;;0.10;0.10;;;;;;;22.01;100.00;99486.88;5095347;28;20205;-55
2023/08/23 07:24:40;;;;;;;0.10;0.10;;;;;;;22.22;100.00;99483.75;5095387;28;20229;-55
2023/08/23 07:27:27;;;;;;;0.10;0.10;;;;;;;22.49;100.00;99480.78;5095598;28;20257;-55
2023/08/23 07:30:14;;;;;;;0.10;0.10;;;;;;;22.30;100.00;99474.84;5095036;28;20730;-55
2023/08/23 07:33:03;;;;;;;0.10;0.10;;;;;;;22.48;100.00;99478.22;5094069;28;20194;-55
2023/08/23 07:35:55;;;;;;;0.10;0.10;;;;;;;22.75;100.00;99474.38;5095252;28;20195;-55
2023/08/23 07:38:42;;;;;;;0.10;0.10;;;;;;;23.02;100.00;99475.94;5094850;28;20288;-55
2023/08/23 07:41:30;;;;;;;0.10;0.10;;;;;;;23.10;100.00;99470.53;5095128;28;20256;-55
2023/08/23 07:44:17;;;;;;;0.00;0.00;;;;;;;23.21;100.00;99467.47;5095229;28;20202;-55
2023/08/23 07:47:04;;;;;;;0.10;0.10;;;;;;;23.38;100.00;99466.41;5093568;28;20194;-55
2023/08/23 07:49:52;;;;;;;0.10;0.10;;;;;;;23.56;100.00;99471.63;5094859;28;20238;-55
2023/08/23 07:52:39;;;;;;;0.00;0.00;;;;;;;23.60;100.00;99461.31;5094978;28;20190;-56
2023/08/23 07:55:26;;;;;;;0.10;0.10;;;;;;;23.92;100.00;99458.47;5094907;28;20202;-55
2023/08/23 07:58:13;;;;;;;0.10;0.10;;;;;;;24.18;100.00;99458.16;5094976;28;20190;-55
2023/08/23 08:01:00;;;;;;;0.10;0.10;;;;;;;24.42;100.00;99459.91;5094770;28;20297;-55
2023/08/23 08:03:47;;;;;;;0.10;0.10;;;;;;;24.65;100.00;99459.91;5094758;28;20206;-55
2023/08/23 08:06:36;;;;;;;0.10;0.10;;;;;;;24.67;100.00;99466.00;5093706;28;20193;-55
2023/08/23 08:09:25;;;;;;;0.10;0.10;;;;;;;24.93;100.00;99459.34;5094574;28;20199;-56
2023/08/23 08:12:12;;;;;;;0.10;0.10;;;;;;;25.10;100.00;99469.06;5094518;28;20202;-56
2023/08/23 08:14:59;;;;;;;0.10;0.10;;;;;;;25.29;100.00;99463.09;5094591;28;20261;-55
2023/08/23 08:17:46;;;;;;;0.10;0.10;;;;;;;25.42;100.00;99470.59;5092701;28;20199;-56
2023/08/23 08:20:33;;;;;;;0.10;0.10;;;;;;;25.45;100.00;99474.78;5094338;28;20710;-56
2023/08/23 08:23:22;;;;;;;0.03;0.03;;;;;;;25.59;100.00;99472.09;5094457;28;20232;-56
2023/08/23 08:26:13;;;;;;;0.10;0.10;;;;;;;25.86;100.00;99465.16;5094050;28;20202;-56
2023/08/23 08:28:59;;;;;;;0.10;0.10;;;;;;;26.04;100.00;99464.78;5094110;28;20195;-56
2023/08/23 08:31:50;;;;;;;0.00;0.00;;;;;;;25.89;100.00;99467.53;5092828;28;20544;-56
2023/08/23 08:34:36;;;;;;;0.10;0.10;;;;;;;25.56;100.00;99469.75;5094101;28;20250;-56
2023/08/23 08:37:23;;;;;;;0.03;0.03;;;;;;;25.98;100.00;99465.56;5093889;28;20309;-56
2023/08/23 08:40:12;;;;;;;0.10;0.10;;;;;;;25.98;100.00;99465.56;5094112;28;20442;-56
2023/08/23 08:43:00;;;;;;;0.10;0.10;;;;;;;26.06;100.00;99465.44;5093772;28;20203;-56
2023/08/23 08:45:47;;;;;;;0.10;0.10;;;;;;;25.82;100.00;99463.88;5093871;28;20713;-55
2023/08/23 08:48:33;;;;;;;0.03;0.03;;;;;;;25.87;100.00;99460.63;5093629;28;20256;-55
2023/08/23 08:51:21;;;;;;;0.10;0.10;;;;;;;26.28;100.00;99470.91;5093447;28;20222;-56
2023/08/23 08:54:09;;;;;;;0.10;0.10;;;;;;;26.58;96.70;99461.66;5093708;28;20548;-56
2023/08/23 08:56:58;;;;;;;0.10;0.10;;;;;;;26.77;90.52;99460.16;5093684;28;20209;-56
2023/08/23 08:59:47;;;;;;;0.05;0.05;;;;;;;27.03;90.17;99462.31;5093392;28;20191;-56
2023/08/23 09:02:34;;;;;;;0.10;0.10;;;;;;;27.29;83.98;99464.38;5092325;28;20198;-55
2023/08/23 09:05:22;;;;;;;0.00;0.00;;;;;;;27.06;82.16;99467.34;5093616;28;20244;-56
2023/08/23 09:08:09;;;;;;;0.10;0.10;;;;;;;27.37;82.18;99461.50;5093171;28;20219;-56
2023/08/23 09:10:55;;;;;;;0.10;0.10;;;;;;;27.79;74.80;99462.41;5093179;28;20808;-56
2023/08/23 09:13:44;;;;;;;0.10;0.10;;;;;;;27.45;71.50;99458.63;5093448;28;20195;-55
2023/08/23 09:16:30;;;;;;;0.10;0.10;;;;;;;26.81;73.65;99456.84;5091787;28;20699;-56
2023/08/23 09:19:17;;;;;;;0.10;0.10;;;;;;;27.09;76.92;99461.50;5093340;28;20210;-56
2023/08/23 09:22:05;;;;;;;0.10;0.10;;;;;;;27.31;80.98;99454.13;5093243;28;20191;-56
2023/08/23 09:24:52;;;;;;;0.00;0.00;;;;;;;27.45;82.25;99460.50;5093086;28;20546;-56
2023/08/23 09:27:40;;;;;;;0.00;0.00;;;;;;;28.00;86.29;99459.59;5092329;28;20266;-56
2023/08/23 09:30:28;;;;;;;0.00;0.00;;;;;;;27.99;80.50;99459.75;5092301;28;20210;-56
2023/08/23 09:33:15;;;;;;;0.10;0.10;;;;;;;28.45;76.36;99457.22;5091559;28;20199;-56
2023/08/23 09:36:02;;;;;;;0.10;0.10;;;;;;;28.73;68.32;99459.78;5093126;28;20198;-56
2023/08/23 09:38:49;;;;;;;0.10;0.10;;;;;;;28.64;70.10;99463.75;5093112;28;20202;-55
2023/08/23 09:41:38;;;;;;;0.00;0.00;;;;;;;28.84;70.69;99456.44;5092867;28;20195;-55
2023/08/23 09:44:43;;;;;;;0.10;0.10;;;;;;;28.81;75.17;99459.59;5093075;28;20214;-56
2023/08/23 09:47:34;;;;;;;0.08;0.08;;;;;;;28.63;70.30;99462.94;5091606;28;20714;-56
2023/08/23 09:50:22;;;;;;;0.00;0.00;;;;;;;28.69;72.37;99456.66;5092974;28;20214;-56
2023/08/23 09:53:23;;;;;;;0.10;0.10;;;;;;;29.20;68.97;99455.22;5092844;28;20198;-56
2023/08/23 09:56:11;;;;;;;0.00;0.00;;;;;;;29.45;66.94;99448.06;5092637;28;20232;-56
2023/08/23 09:58:58;;;;;;;0.00;0.00;;;;;;;29.00;68.50;99456.06;5092780;28;20191;-56
2023/08/23 10:01:45;;;;;;;0.00;0.00;;;;;;;29.46;66.31;99440.69;5091471;28;20187;-56
2023/08/23 10:04:35;;;;;;;0.00;0.00;;;;;;;29.89;64.21;99441.00;5092584;28;20241;-56
2023/08/23 10:07:22;;;;;;;0.00;0.00;;;;;;;30.26;60.79;99444.03;5092676;28;20245;-56
2023/08/23 10:10:12;;;;;;;0.00;0.00;;;;;;;30.68;58.58;99437.88;5092692;28;20229;-56
2023/08/23 10:13:04;;;;;;;0.00;0.00;;;;;;;30.47;57.82;99432.75;5092460;28;20195;-56
2023/08/23 10:15:55;;;;;;;0.00;0.00;;;;;;;30.40;58.69;99437.41;5092727;28;20283;-56
2023/08/23 10:18:43;;;;;;;0.10;0.10;;;;;;;30.30;57.45;99437.88;5092634;28;20194;-56
2023/08/23 10:21:32;;;;;;;0.10;0.10;;;;;;;30.74;57.17;99444.38;5092692;28;20256;-56
2023/08/23 10:24:18;;;;;;;0.00;0.00;;;;;;;31.24;54.76;99442.50;5092596;28;20194;-56
2023/08/23 10:27:07;;;;;;;0.00;0.00;;;;;;;30.77;56.71;99438.44;5092630;28;20191;-56
2023/08/23 10:29:54;;;;;;;0.00;0.00;;;;;;;31.24;51.03;99437.00;5092481;28;20218;-56
2023/08/23 10:33:08;;;;;;;0.00;0.00;;;;;;;31.86;47.95;99434.28;5091200;28;20194;-55
2023/08/23 10:35:56;;;;;;;0.00;0.00;;;;;;;31.95;49.81;99432.06;5092509;28;20214;-56
2023/08/23 10:38:44;;;;;;;0.00;0.00;;;;;;;31.69;48.97;99430.44;5092034;28;20234;-56
2023/08/23 10:41:31;;;;;;;0.00;0.00;;;;;;;33.16;43.98;99430.91;5094441;28;20190;-56
2023/08/23 10:44:17;;;;;;;0.00;0.00;;;;;;;33.84;42.66;99430.25;5096258;28;20194;-56
2023/08/23 10:47:08;;;;;;;0.00;0.00;;;;;;;36.45;37.31;99427.84;5095067;28;20191;-56
2023/08/23 10:49:56;;;;;;;0.00;0.00;;;;;;;37.88;35.13;99427.84;5095746;28;20286;-56
2023/08/23 10:52:43;;;;;;;0.00;0.00;;;;;;;37.45;34.10;99429.84;5095807;28;20226;-57
2023/08/23 10:55:31;;;;;;;0.00;0.00;;;;;;;40.63;29.39;99424.75;5096000;28;20266;-57
2023/08/23 10:58:18;;;;;;;0.00;0.00;;;;;;;40.47;29.18;99429.63;5095994;28;20195;-56
2023/08/23 11:01:05;;;;;;;0.00;0.00;;;;;;;40.73;28.11;99419.16;5094699;28;20195;-57
2023/08/23 11:03:52;;;;;;;0.00;0.00;;;;;;;41.36;28.17;99410.81;5096006;28;20195;-57
2023/08/23 11:06:38;;;;;;;0.00;0.00;;;;;;;40.23;30.20;99423.06;5095906;28;20198;-57
2023/08/23 11:09:25;;;;;;;0.00;0.00;;;;;;;41.88;29.52;99414.66;5095943;28;20195;-57
2023/08/23 11:12:14;;;;;;;0.00;0.00;;;;;;;41.37;28.55;99415.25;5095603;28;20230;-57
2023/08/23 11:15:00;;;;;;;0.00;0.00;;;;;;;41.27;27.67;99420.06;5095899;28;20203;-57
2023/08/23 11:17:47;;;;;;;0.00;0.00;;;;;;;41.44;27.80;99414.91;5094599;28;20260;-57
2023/08/23 11:20:35;;;;;;;0.00;0.00;;;;;;;43.31;26.24;99415.25;5095435;28;20288;-57
2023/08/23 11:23:21;;;;;;;0.00;0.00;;;;;;;44.47;23.79;99414.78;5094549;28;20193;-57
2023/08/23 11:26:09;;;;;;;0.00;0.00;;;;;;;42.78;25.45;99418.41;5095166;28;20213;-57
2023/08/23 11:28:57;;;;;;;0.00;0.00;;;;;;;42.74;26.63;99403.41;5095344;28;20201;-57
2023/08/23 11:31:53;;;;;;;0.00;0.00;;;;;;;42.57;24.25;99415.13;5093887;28;20706;-57
2023/08/23 11:34:40;;;;;;;0.00;0.00;;;;;;;42.27;25.60;99414.44;5095304;28;20666;-56
2023/08/23 11:37:29;;;;;;;0.00;0.00;;;;;;;42.64;26.95;99423.09;5095015;28;20706;-57
2023/08/23 11:40:16;;;;;;;0.00;0.00;;;;;;;40.57;28.48;99415.66;5095251;28;20187;-57
2023/08/23 11:43:07;;;;;;;0.00;0.00;;;;;;;41.13;28.09;99414.38;5095205;28;20316;-57
2023/08/23 11:46:09;;;;;;;0.00;0.00;;;;;;;42.28;26.63;99410.53;5093810;28;20201;-57
2023/08/23 11:48:56;;;;;;;0.00;0.00;;;;;;;43.44;26.07;99406.09;5095045;28;20214;-57
2023/08/23 11:51:45;;;;;;;0.00;0.00;;;;;;;41.76;26.58;99403.13;5094362;28;20717;-57
2023/08/23 11:54:31;;;;;;;0.00;0.00;;;;;;;40.39;28.67;99396.84;5094749;28;20321;-57
2023/08/23 11:57:19;;;;;;;0.00;0.00;;;;;;;43.38;26.63;99401.75;5093833;28;20189;-57
2023/08/23 12:00:08;;;;;;;0.00;0.00;;;;;;;43.97;25.62;99395.22;5094928;28;20203;-57
2023/08/23 12:02:58;;;;;;;0.00;0.00;;;;;;;44.14;24.61;99393.78;5093485;28;20197;-57
2023/08/23 12:05:45;;;;;;;0.00;0.00;;;;;;;43.76;24.46;99396.00;5094768;28;20190;-57
2023/08/23 12:08:33;;;;;;;0.00;0.00;;;;;;;43.71;25.27;99388.50;5094645;28;20198;-56
2023/08/23 12:11:20;;;;;;;0.00;0.00;;;;;;;45.81;22.90;99383.00;5094453;28;20361;-57
2023/08/23 12:14:07;;;;;;;0.00;0.00;;;;;;;45.02;24.31;99380.19;5094541;28;20202;-57
2023/08/23 12:16:54;;;;;;;0.00;0.00;;;;;;;45.44;23.30;99383.50;5093372;28;20256;-57
2023/08/23 12:19:42;;;;;;;0.00;0.00;;;;;;;43.81;25.77;99382.72;5094601;28;20237;-57
2023/08/23 12:22:29;;;;;;;0.00;0.00;;;;;;;42.59;26.42;99376.63;5093916;28;20229;-57
2023/08/23 12:25:16;;;;;;;0.00;0.00;;;;;;;43.22;26.10;99389.19;5094430;28;20249;-57
2023/08/23 12:28:03;;;;;;;0.00;0.00;;;;;;;44.20;24.59;99382.16;5094211;28;20205;-57
2023/08/23 12:30:50;;;;;;;0.00;0.00;;;;;;;42.00;26.42;99390.00;5094163;28;20213;-57
2023/08/23 12:33:37;;;;;;;0.00;0.00;;;;;;;44.22;24.47;99376.28;5093985;28;20218;-57
2023/08/23 12:36:25;;;;;;;0.00;0.00;;;;;;;45.78;24.22;99386.47;5093944;28;20198;-57
2023/08/23 12:39:12;;;;;;;0.00;0.00;;;;;;;44.19;25.52;99386.09;5094125;28;20190;-57
2023/08/23 12:41:59;;;;;;;0.00;0.00;;;;;;;46.00;23.16;99384.66;5094042;28;20190;-57
2023/08/23 12:44:46;;;;;;;0.00;0.00;;;;;;;46.77;22.05;99383.88;5094019;28;20324;-57
2023/08/23 12:47:33;;;;;;;0.00;0.00;;;;;;;45.25;23.92;99366.94;5092595;28;20202;-57
2023/08/23 12:50:20;;;;;;;0.00;0.00;;;;;;;44.03;25.01;99373.59;5093843;28;20202;-57
2023/08/23 12:53:09;;;;;;;0.00;0.00;;;;;;;45.53;23.58;99373.16;5093625;28;20214;-56
2023/08/23 12:55:56;;;;;;;0.00;0.00;;;;;;;44.11;24.89;99358.03;5093778;28;20190;-57
2023/08/23 12:58:43;;;;;;;0.00;0.00;;;;;;;43.24;25.07;99359.03;5093781;28;20202;-56
2023/08/23 13:01:31;;;;;;;0.00;0.00;;;;;;;44.09;24.67;99357.53;5092491;28;20197;-57
2023/08/23 13:04:18;;;;;;;0.00;0.00;;;;;;;46.02;22.93;99357.16;5093643;28;20194;-57